Metar Cercanos

 

LEPA - Palma De Mallorc, Spain
Distance from station: ONO 38km
Actualización: 18/10/2018 15:30
Parcialmente nuboso
Parcialmente nuboso
 Viento del ENE
Viento: ENE 26 km/h
Temperatura: 25°C
Rocío: 20°C
Humedad: 74%
Barómetro: 1007 hPa
Clouds: Parcialmente nuboso
Visibility: 10 km
Cloud details: Few Clouds 671 m
Parcialmente nuboso 1067 m
2018/10/18 13:30 LEPA 181330Z 06014KT 9999 FEW022 SCT035 25/20 Q1007 NOSIG
LEMH - Mahon/Menorca Is, Spain
Distance from station: ENE 105km
Actualización: 18/10/2018 15:30
Cubierto
Cubierto
 Viento del ENE
Viento: ENE 28 km/h
Temperatura: 22°C
Rocío: 19°C
Humedad: 83%
Barómetro: 1007 hPa
Clouds: Cubierto
Visibility: 10 km
Cloud details: Cubierto 366 m
2018/10/18 13:30 LEMH 181330Z 07015KT 040V100 9999 OVC012 22/19 Q1007
 
LEIB - Ibiza/Es Codola, Spain
Distance from station: OSO 165km
Actualización: 18/10/2018 15:39
Rain showers, Parcialmente nuboso
Rain showers, Parcialmente nuboso
 Viento del E
Viento: E 17 km/h
Temperatura: 21°C
Rocío: 19°C
Humedad: 88%
Barómetro: 1007 hPa
Resumen: Rain Showers
Clouds: Parcialmente nuboso
Visibility: 8 km
Cloud details: Few Clouds 640 m
Parcialmente nuboso 914 m
2018/10/18 13:39 LEIB 181339Z 08009KT 050V110 8000 SHRA FEW021TCU SCT030 21/19 Q1007 TEMPO 4000 SHRA
LEBL - Barcelona Airpor, Spain
Distance from station: NNO 225km
Actualización: 18/10/2018 15:30
Parcialmente nuboso
Parcialmente nuboso
 Viento del NE
Viento: NE 28 km/h
Temperatura: 21°C
Rocío: 17°C
Humedad: 78%
Barómetro: 1010 hPa
Clouds: Parcialmente nuboso
Visibility: 10 km
Cloud details: Parcialmente nuboso 1219 m
2018/10/18 13:30 LEBL 181330Z 05015KT 9999 SCT040 21/17 Q1010 NOSIG
 
LEVC - Valencia (civ/Mi, Spain
Distance from station: NO 188km
Actualización: 18/10/2018 15:30
Rain showers, Muy nuboso
Rain showers, Muy nuboso
 Viento del ONO
Viento: ONO 11 km/h
Temperatura: 17°C
Rocío: 16°C
Humedad: 94%
Barómetro: 1009 hPa
Resumen: Rain Showers
Clouds: Muy nuboso
Visibility: 3 km
Cloud details: Few Clouds 549 m
Few Clouds 762 m
Muy nuboso 914 m
2018/10/18 13:30 LEVC 181330Z 29006KT 3000 SHRA FEW018 FEW025TCU BKN030 17/16 Q1009 NOSIG
LEGE - Gerona/Costa Bra, Spain
Distance from station: N 276km
Actualización: 18/10/2018 15:30
Muy nuboso
Muy nuboso
 Viento del NNE
Viento: NNE 24 km/h
Temperatura: 18°C
Rocío: 18°C
Humedad: 100%
Barómetro: 1012 hPa
Clouds: Muy nuboso
Visibility: 9 km
Cloud details: Parcialmente nuboso 305 m
Muy nuboso 762 m
2018/10/18 13:30 LEGE 181330Z 02013KT 360V060 9000 SCT010 BKN025 18/18 Q1012
 
LEAL - Alicante/El Alte, Spain
Distance from station: OSO 344km
Actualización: 18/10/2018 15:30
Despejado
Despejado
 Viento del N
Viento: N 13 km/h, Racha: 33 km/h
Temperatura: 23°C
Rocío: 12°C
Humedad: 50%
Barómetro: 1007 hPa
Resumen: Despejado
Visibility: greater than 10 km
2018/10/18 13:30 LEAL 181330Z 36007G18KT 240V050 CAVOK 23/12 Q1007 NOSIG
LEAM - Almeria Airport, Spain
Distance from station: SSO 56km
Actualización: 18/10/2018 15:30
Lluvia débil, Showers, Nearby thunderstorm, Few clouds
Lluvia débil, Showers, Nearby thunderstorm, Few clouds
 Viento del OSO
Viento: OSO 44 km/h
Temperatura: 15°C
Rocío: 13°C
Humedad: 88%
Barómetro: 1008 hPa
Resumen: Lluvia débil, Showers, Nearby thunderstorm
Clouds: Few Clouds
Visibility: 10 km
Cloud details: Muy nuboso 305 m
Few Clouds 610 m
2018/10/18 13:30 LEAM 181330Z 24024KT 9999 -SHRA VCTS BKN010 FEW020CB 15/13 Q1008
 
LEZG - Zaragoza (mil/Ci, Spain
Distance from station: NO 431km
Actualización: 18/10/2018 15:30
Parcialmente nuboso
Parcialmente nuboso
 Viento del NO
Viento: NO 13 km/h
Temperatura: 21°C
Rocío: 11°C
Humedad: 53%
Barómetro: 1012 hPa
Clouds: Parcialmente nuboso
Visibility: 10 km
Cloud details: Parcialmente nuboso 1981 m
2018/10/18 13:30 LEZG 181330Z 31007KT 270V360 9999 SCT065 21/11 Q1012
LEMD - Madrid/Barajas, Spain
Distance from station: ONO 234km
Actualización: 18/10/2018 15:30
Muy nuboso
Muy nuboso
 Viento del NE
Viento: NE 15 km/h
Temperatura: 20°C
Rocío: 9°C
Humedad: 49%
Barómetro: 1011 hPa
Clouds: Muy nuboso
Visibility: 10 km
Cloud details: Few Clouds 1524 m
Muy nuboso 2134 m
2018/10/18 13:30 LEMD 181330Z 05008KT 350V110 9999 FEW050 BKN070 20/09 Q1011 NOSIG
 
LEGR - Granada Airport, Spain
Distance from station: OSO 62km
Actualización: 18/10/2018 15:30
Lluvia débil, Cubierto
Lluvia débil, Cubierto
 Viento del E
Viento: E 9 km/h
Temperatura: 12°C
Rocío: 11°C
Humedad: 94%
Barómetro: 1010 hPa
Resumen: Lluvia débil
Clouds: Cubierto
Visibility: 10 km
Cloud details: Few Clouds 457 m
Parcialmente nuboso 1372 m
Cubierto 1981 m
2018/10/18 13:30 LEGR 181330Z 09005KT 9999 -RA FEW015 SCT045 OVC065 12/11 Q1010
LEMG - Malaga (civ/Mil), Spain
Distance from station: OSO 227km
Actualización: 18/10/2018 15:30
Parcialmente nuboso
Parcialmente nuboso
 Viento del SE
Viento: SE 6 km/h
Temperatura: 18°C
Rocío: 11°C
Humedad: 64%
Barómetro: 1008 hPa
Clouds: Parcialmente nuboso
Visibility: 10 km
Cloud details: Few Clouds 610 m
Few Clouds 1219 m
Parcialmente nuboso 2134 m
2018/10/18 13:30 LEMG 181330Z 13003KT 9999 FEW020 FEW040TCU SCT070 18/11 Q1008 NOSIG
 
LEZL - Sevilla (civ/Mil, Spain
Distance from station: S 318km
Actualización: 18/10/2018 15:30
Parcialmente nuboso
Parcialmente nuboso
 Viento del E
Viento: E 15 km/h
Temperatura: 15°C
Rocío: 12°C
Humedad: 82%
Barómetro: 1008 hPa
Clouds: Parcialmente nuboso
Visibility: 10 km
Cloud details: Few Clouds 457 m
Parcialmente nuboso 1463 m
2018/10/18 13:30 LEZL 181330Z 08008KT 050V110 9999 FEW015 SCT048 15/12 Q1008 NOSIG
LEVT - Vitoria, Spain
Distance from station: NO 226km
Actualización: 18/10/2018 15:30
Muy nuboso
Muy nuboso
 Viento del N
Viento: N 15 km/h
Temperatura: 15°C
Rocío: 13°C
Humedad: 88%
Barómetro: 1015 hPa
Clouds: Muy nuboso
Visibility: 9 km
Cloud details: Parcialmente nuboso 335 m
Muy nuboso 457 m
2018/10/18 13:30 LEVT 181330Z 01008KT 340V040 9000 SCT011 BKN015 15/13 Q1015
 
LEBB - Bilbao/Sondica, Spain
Distance from station: NNO 235km
Actualización: 18/10/2018 15:30
Lluvia débil, Mist, Muy nuboso
Lluvia débil, Mist, Muy nuboso
 Viento del NO
Viento: NO 9 km/h
Temperatura: 17°C
Rocío: 17°C
Humedad: 100%
Barómetro: 1016 hPa
Resumen: Lluvia débil, Mist
Clouds: Muy nuboso
Visibility: 3 km
Cloud details: Parcialmente nuboso 122 m
Parcialmente nuboso 305 m
Muy nuboso 732 m
2018/10/18 13:30 LEBB 181330Z 32005KT 3000 -RA BR SCT004 SCT010 BKN024 17/17 Q1016 TEMPO 5000 BR BKN015
LESO - San Sebastian/Fu, Spain
Distance from station: N 231km
Actualización: 18/10/2018 15:30
Parcialmente nuboso
Parcialmente nuboso
 Viento del N
Viento: N 7 km/h
Temperatura: 19°C
Rocío: 16°C
Humedad: 83%
Barómetro: 1015 hPa
Clouds: Parcialmente nuboso
Visibility: 6 km
Cloud details: Parcialmente nuboso 518 m
Parcialmente nuboso 1737 m
2018/10/18 13:30 LESO 181330Z 36004KT 320V050 6000 SCT017 SCT057 19/16 Q1015
 
LEVD - Valladolid(Mil/C, Spain
Distance from station: ONO 239km
Actualización: 18/10/2018 15:30
Parcialmente nuboso
Parcialmente nuboso
 Viento del NE
Viento: NE 35 km/h
Temperatura: 18°C
Rocío: 8°C
Humedad: 52%
Barómetro: 1013 hPa
Clouds: Parcialmente nuboso
Visibility: 10 km
Cloud details: Parcialmente nuboso 1219 m
2018/10/18 13:30 LEVD 181330Z 05019KT 9999 SCT040 18/08 Q1013
LESA - Salamanca (civ/M, Spain
Distance from station: ONO 349km
Actualización: 18/10/2018 15:30
Parcialmente nuboso
Parcialmente nuboso
 Viento del ENE
Viento: ENE 22 km/h
Temperatura: 20°C
Rocío: 9°C
Humedad: 49%
Barómetro: 1012 hPa
Clouds: Parcialmente nuboso
Visibility: 10 km
Cloud details: Parcialmente nuboso 1067 m
2018/10/18 13:30 LESA 181330Z 07012KT 020V110 9999 SCT035 20/09 Q1012
 
LEXJ - Santander/Paraya, Spain
Distance from station: NNO 247km
Actualización: 18/10/2018 15:30
Light drizzle, Muy nuboso
Light drizzle, Muy nuboso
 Viento del ONO
Viento: ONO 11 km/h
Temperatura: 18°C
Rocío: 16°C
Humedad: 88%
Barómetro: 1016 hPa
Resumen: Light Drizzle
Clouds: Muy nuboso
Visibility: 6 km
Cloud details: Few Clouds 335 m
Muy nuboso 1036 m
2018/10/18 13:30 LEXJ 181330Z 30006KT 6000 -DZ FEW011 BKN034 18/16 Q1016
LEAS - Asturias/Aviles, Spain
Distance from station: NO 214km
Actualización: 18/10/2018 15:30
Muy nuboso
Muy nuboso
 Viento del varies
Viento: varies 9 km/h
Temperatura: 17°C
Rocío: 16°C
Humedad: 94%
Barómetro: 1017 hPa
Clouds: Muy nuboso
Visibility: 7 km
Cloud details: Parcialmente nuboso 305 m
Muy nuboso 762 m
2018/10/18 13:30 LEAS 181330Z VRB05KT 7000 SCT010 BKN025 17/16 Q1017 NOSIG
 
LECO - La Coruna/Alvedr, Spain
Distance from station: ONO 222km
Actualización: 18/10/2018 15:30
Muy nuboso
Muy nuboso
 Viento del NE
Viento: NE 20 km/h
Temperatura: 18°C
Rocío: 14°C
Humedad: 78%
Barómetro: 1017 hPa
Clouds: Muy nuboso
Visibility: 10 km
Cloud details: Parcialmente nuboso 640 m
Muy nuboso 1036 m
2018/10/18 13:30 LECO 181330Z 05011KT 010V090 9999 SCT021 BKN034 18/14 Q1017 NOSIG
LEVX - Vigo/Peinador, Spain
Distance from station: O 214km
Actualización: 18/10/2018 15:30
Few Clouds
Few Clouds
 Viento del NNE
Viento: NNE 19 km/h
Temperatura: 20°C
Rocío: 13°C
Humedad: 64%
Barómetro: 1014 hPa
Clouds: Few Clouds
Visibility: 10 km
Cloud details: Few Clouds 1158 m
2018/10/18 13:30 LEVX 181330Z 03010KT 330V080 9999 FEW038 20/13 Q1014 NOSIG